createdAt,value
2018-03-24T00:00:00.794Z,2.41
2018-03-24T00:00:04.680Z,2.4
2018-03-24T00:00:08.783Z,2.42
2018-03-24T00:00:12.894Z,2.41
2018-03-24T00:00:16.893Z,2.42
2018-03-24T00:00:20.879Z,2.42
2018-03-24T00:00:25.094Z,2.41
2018-03-24T00:00:29.303Z,2.42
2018-03-24T00:00:33.519Z,2.42
2018-03-24T00:00:37.830Z,2.42
2018-03-24T00:00:41.821Z,2.43
2018-03-24T00:00:46.030Z,2.43
2018-03-24T00:00:50.129Z,2.43
2018-03-24T00:00:54.341Z,2.43
2018-03-24T00:00:58.440Z,2.43
2018-03-24T00:01:02.537Z,2.44
2018-03-24T00:01:06.536Z,2.43
2018-03-24T00:01:10.535Z,2.44
2018-03-24T00:01:14.639Z,2.43
2018-03-24T00:01:18.960Z,2.45
2018-03-24T00:01:23.076Z,2.43
2018-03-24T00:01:27.396Z,2.45
2018-03-24T00:01:31.612Z,2.44
2018-03-24T00:01:35.829Z,2.45
2018-03-24T00:01:39.924Z,2.44
2018-03-24T00:01:44.023Z,2.46
2018-03-24T00:01:48.118Z,2.45
2018-03-24T00:01:52.115Z,2.45
2018-03-24T00:01:56.441Z,2.45
2018-03-24T00:02:00.433Z,2.46
2018-03-24T00:02:04.432Z,2.46
2018-03-24T00:02:08.763Z,2.46
2018-03-24T00:02:12.861Z,2.45
2018-03-24T00:02:16.961Z,2.46
2018-03-24T00:02:20.966Z,2.46
2018-03-24T00:02:24.958Z,2.46
2018-03-24T00:02:29.066Z,2.47
2018-03-24T00:02:33.180Z,2.47
2018-03-24T00:02:37.388Z,2.47
2018-03-24T00:02:41.382Z,2.47
2018-03-24T00:02:45.714Z,2.47
2018-03-24T00:02:49.925Z,2.47
2018-03-24T00:02:54.259Z,2.47
2018-03-24T00:02:58.363Z,2.48
2018-03-24T00:03:02.584Z,2.48
2018-03-24T00:03:06.701Z,2.48
2018-03-24T00:03:10.592Z,2.48
2018-03-24T00:03:14.590Z,2.48
2018-03-24T00:03:18.797Z,2.49
2018-03-24T00:03:22.898Z,2.49
2018-03-24T00:03:26.892Z,2.49
2018-03-24T00:03:31.009Z,2.49
2018-03-24T00:03:35.323Z,2.5
2018-03-24T00:03:39.206Z,2.49
2018-03-24T00:03:43.197Z,2.5
2018-03-24T00:03:47.077Z,2.49
2018-03-24T00:03:51.189Z,2.5
2018-03-24T00:03:55.397Z,2.5
2018-03-24T00:03:59.495Z,2.5
2018-03-24T00:04:03.596Z,2.5
2018-03-24T00:04:07.589Z,2.5
2018-03-24T00:04:11.692Z,2.5
2018-03-24T00:04:15.801Z,2.51
2018-03-24T00:04:19.909Z,2.51
2018-03-24T00:04:23.902Z,2.51
2018-03-24T00:04:27.787Z,2.51
2018-03-24T00:04:31.892Z,2.51
2018-03-24T00:04:35.774Z,2.51
2018-03-24T00:04:39.764Z,2.51
2018-03-24T00:04:43.760Z,2.52
2018-03-24T00:04:47.748Z,2.51
2018-03-24T00:04:51.959Z,2.51
2018-03-24T00:04:56.173Z,2.51
2018-03-24T00:05:00.176Z,2.52
2018-03-24T00:05:04.055Z,2.51
2018-03-24T00:05:08.268Z,2.52
2018-03-24T00:05:12.474Z,2.53
2018-03-24T00:05:16.686Z,2.51
2018-03-24T00:05:20.680Z,2.52
2018-03-24T00:05:24.894Z,2.52
2018-03-24T00:05:28.992Z,2.53
2018-03-24T00:05:33.087Z,2.52
2018-03-24T00:05:37.077Z,2.52
2018-03-24T00:05:41.297Z,2.53
2018-03-24T00:05:45.507Z,2.52
2018-03-24T00:05:49.615Z,2.54
2018-03-24T00:05:53.606Z,2.53
2018-03-24T00:05:57.946Z,2.53
2018-03-24T00:06:01.938Z,2.53
2018-03-24T00:06:06.086Z,2.54
2018-03-24T00:06:10.186Z,2.54
2018-03-24T00:06:14.288Z,2.53
2018-03-24T00:06:18.513Z,2.54
2018-03-24T00:06:22.738Z,2.54
2018-03-24T00:06:26.843Z,2.55
2018-03-24T00:06:30.946Z,2.54
2018-03-24T00:06:35.049Z,2.55
2018-03-24T00:06:39.153Z,2.55
2018-03-24T00:06:43.371Z,2.54
2018-03-24T00:06:47.474Z,2.54
2018-03-24T00:06:51.573Z,2.55
2018-03-24T00:06:55.783Z,2.54
2018-03-24T00:06:59.993Z,2.55
2018-03-24T00:07:04.453Z,2.55
2018-03-24T00:07:08.712Z,2.55
2018-03-24T00:07:12.817Z,2.55
2018-03-24T00:07:16.588Z,2.55
2018-03-24T00:07:20.795Z,2.55
2018-03-24T00:07:25.107Z,2.56
2018-03-24T00:07:29.467Z,2.55
2018-03-24T00:07:33.678Z,2.56
2018-03-24T00:07:37.667Z,2.56
2018-03-24T00:07:41.799Z,2.56
2018-03-24T00:07:45.902Z,2.56
2018-03-24T00:07:49.895Z,2.56
2018-03-24T00:07:53.996Z,2.56
2018-03-24T00:07:57.878Z,2.56
2018-03-24T00:08:01.975Z,2.57
2018-03-24T00:08:05.973Z,2.56
2018-03-24T00:08:10.031Z,2.56
2018-03-24T00:08:14.130Z,2.56
2018-03-24T00:08:18.294Z,2.57
2018-03-24T00:08:22.778Z,2.56
2018-03-24T00:08:27.046Z,2.57
2018-03-24T00:08:31.150Z,2.56
2018-03-24T00:08:35.362Z,2.57
2018-03-24T00:08:39.602Z,2.57
2018-03-24T00:08:43.713Z,2.57
2018-03-24T00:08:47.813Z,2.57
2018-03-24T00:08:52.028Z,2.58
2018-03-24T00:08:56.138Z,2.57
2018-03-24T00:09:00.242Z,2.57
2018-03-24T00:09:04.396Z,2.58
2018-03-24T00:09:08.497Z,2.57
2018-03-24T00:09:12.703Z,2.57
2018-03-24T00:09:17.024Z,2.58
2018-03-24T00:09:21.017Z,2.57
2018-03-24T00:09:25.008Z,2.58
2018-03-24T00:09:29.217Z,2.57
2018-03-24T00:09:33.422Z,2.57
2018-03-24T00:09:37.683Z,2.57
2018-03-24T00:09:41.686Z,2.58
2018-03-24T00:09:45.895Z,2.58
2018-03-24T00:09:50.107Z,2.58
2018-03-24T00:09:54.207Z,2.58
2018-03-24T00:09:58.417Z,2.58
2018-03-24T00:10:02.302Z,2.58
2018-03-24T00:10:06.078Z,2.58
2018-03-24T00:10:10.181Z,2.59
2018-03-24T00:10:14.395Z,2.58
2018-03-24T00:10:18.605Z,2.58
2018-03-24T00:10:22.816Z,2.59
2018-03-24T00:10:26.925Z,2.59
2018-03-24T00:10:31.030Z,2.58
2018-03-24T00:10:35.017Z,2.58
2018-03-24T00:10:39.228Z,2.59
2018-03-24T00:10:43.444Z,2.58
2018-03-24T00:10:47.546Z,2.58
2018-03-24T00:10:51.645Z,2.58
2018-03-24T00:10:55.749Z,2.57
2018-03-24T00:10:59.850Z,2.58
2018-03-24T00:11:03.960Z,2.58
2018-03-24T00:11:08.227Z,2.59
2018-03-24T00:11:12.215Z,2.59
2018-03-24T00:11:16.206Z,2.58
2018-03-24T00:11:20.317Z,2.6
2018-03-24T00:11:24.631Z,2.59
2018-03-24T00:11:28.838Z,2.59
2018-03-24T00:11:33.049Z,2.59
2018-03-24T00:11:37.043Z,2.59
2018-03-24T00:11:41.043Z,2.59
2018-03-24T00:11:45.033Z,2.6
2018-03-24T00:11:49.023Z,2.6
2018-03-24T00:11:53.232Z,2.6
2018-03-24T00:11:57.340Z,2.58
2018-03-24T00:12:01.440Z,2.58
2018-03-24T00:12:05.688Z,2.6
2018-03-24T00:12:09.794Z,2.59
2018-03-24T00:12:14.016Z,2.6
2018-03-24T00:12:18.013Z,2.59
2018-03-24T00:12:22.114Z,2.59
2018-03-24T00:12:26.211Z,2.59
2018-03-24T00:12:30.313Z,2.58
2018-03-24T00:12:34.414Z,2.59
2018-03-24T00:12:38.521Z,2.59
2018-03-24T00:12:42.631Z,2.59
2018-03-24T00:12:46.739Z,2.59
2018-03-24T00:12:50.518Z,2.59
2018-03-24T00:12:54.739Z,2.6
2018-03-24T00:12:58.735Z,2.59
2018-03-24T00:13:02.883Z,2.58
2018-03-24T00:13:06.770Z,2.6
2018-03-24T00:13:10.870Z,2.6
2018-03-24T00:13:15.083Z,2.6
2018-03-24T00:13:19.187Z,2.59
2018-03-24T00:13:23.071Z,2.59
2018-03-24T00:13:27.170Z,2.59
2018-03-24T00:13:31.271Z,2.58
2018-03-24T00:13:35.372Z,2.58
2018-03-24T00:13:39.369Z,2.59
2018-03-24T00:13:43.589Z,2.59
2018-03-24T00:13:47.808Z,2.6
2018-03-24T00:13:51.910Z,2.59
2018-03-24T00:13:56.118Z,2.59
2018-03-24T00:14:00.443Z,2.58
2018-03-24T00:14:04.739Z,2.59
2018-03-24T00:14:08.737Z,2.58
2018-03-24T00:14:12.953Z,2.58
2018-03-24T00:14:17.171Z,2.59
2018-03-24T00:14:21.336Z,2.58
2018-03-24T00:14:25.548Z,2.58
2018-03-24T00:14:29.767Z,2.59
2018-03-24T00:14:33.982Z,2.58
2018-03-24T00:14:38.293Z,2.58
2018-03-24T00:14:42.398Z,2.58
2018-03-24T00:14:46.497Z,2.58
2018-03-24T00:14:50.595Z,2.57
2018-03-24T00:14:54.922Z,2.58
2018-03-24T00:14:59.023Z,2.57
2018-03-24T00:15:03.017Z,2.57
2018-03-24T00:15:07.133Z,2.57
2018-03-24T00:15:11.235Z,2.57
2018-03-24T00:15:15.339Z,2.58
2018-03-24T00:15:19.343Z,2.58
2018-03-24T00:15:23.449Z,2.57
2018-03-24T00:15:27.550Z,2.57
2018-03-24T00:15:31.662Z,2.56
2018-03-24T00:15:35.765Z,2.56
2018-03-24T00:15:39.973Z,2.56
2018-03-24T00:15:43.967Z,2.57
2018-03-24T00:15:47.958Z,2.56
2018-03-24T00:15:52.172Z,2.56
2018-03-24T00:15:56.166Z,2.56
2018-03-24T00:16:00.377Z,2.56
2018-03-24T00:16:04.721Z,2.56
2018-03-24T00:16:08.820Z,2.55
2018-03-24T00:16:13.057Z,2.56
2018-03-24T00:16:17.162Z,2.55
2018-03-24T00:16:21.502Z,2.55
2018-03-24T00:16:25.830Z,2.55
2018-03-24T00:16:30.040Z,2.54
2018-03-24T00:16:34.258Z,2.54
2018-03-24T00:16:38.478Z,2.53
2018-03-24T00:16:42.693Z,2.53
2018-03-24T00:16:46.845Z,2.53
2018-03-24T00:16:51.166Z,2.52
2018-03-24T00:16:55.377Z,2.53
2018-03-24T00:16:59.658Z,2.53
2018-03-24T00:17:03.892Z,2.53
2018-03-24T00:17:08.120Z,2.53
2018-03-24T00:17:12.222Z,2.52
2018-03-24T00:17:16.441Z,2.51
2018-03-24T00:17:20.542Z,2.52
2018-03-24T00:17:24.536Z,2.51
2018-03-24T00:17:28.642Z,2.51
2018-03-24T00:17:32.859Z,2.52
2018-03-24T00:17:36.958Z,2.51
2018-03-24T00:17:41.054Z,2.51
2018-03-24T00:17:45.272Z,2.5
2018-03-24T00:17:49.482Z,2.5
2018-03-24T00:17:53.586Z,2.49
2018-03-24T00:17:57.580Z,2.49
2018-03-24T00:18:01.798Z,2.49
2018-03-24T00:18:05.843Z,2.49
2018-03-24T00:18:09.945Z,2.5
2018-03-24T00:18:13.941Z,2.48
2018-03-24T00:18:18.045Z,2.49
2018-03-24T00:18:22.264Z,2.48
2018-03-24T00:18:26.258Z,2.48
2018-03-24T00:18:30.476Z,2.47
2018-03-24T00:18:34.367Z,2.48
2018-03-24T00:18:38.470Z,2.47
2018-03-24T00:18:42.352Z,2.47
2018-03-24T00:18:46.561Z,2.47
2018-03-24T00:18:50.659Z,2.47
2018-03-24T00:18:54.759Z,2.46
2018-03-24T00:18:58.641Z,2.46
2018-03-24T00:19:02.869Z,2.45
2018-03-24T00:19:06.974Z,2.46
2018-03-24T00:19:10.967Z,2.45
2018-03-24T00:19:15.174Z,2.46
2018-03-24T00:19:19.275Z,2.45
2018-03-24T00:19:23.596Z,2.44
2018-03-24T00:19:27.719Z,2.44
2018-03-24T00:19:32.031Z,2.43
2018-03-24T00:19:36.133Z,2.43
2018-03-24T00:19:40.344Z,2.43
2018-03-24T00:19:44.355Z,2.43
2018-03-24T00:19:48.595Z,2.42
2018-03-24T00:19:52.816Z,2.42
2018-03-24T00:19:57.133Z,2.41
2018-03-24T00:20:01.344Z,2.42
2018-03-24T00:20:05.647Z,2.41
2018-03-24T00:20:09.438Z,2.42
2018-03-24T00:20:13.433Z,2.41
2018-03-24T00:20:17.538Z,2.41
2018-03-24T00:20:21.550Z,2.4
2018-03-24T00:20:25.651Z,2.4
2018-03-24T00:20:29.646Z,2.4
2018-03-24T00:20:33.537Z,2.4
2018-03-24T00:20:37.639Z,2.39
2018-03-24T00:20:41.858Z,2.39
2018-03-24T00:20:45.876Z,2.38
2018-03-24T00:20:50.088Z,2.39
2018-03-24T00:20:54.306Z,2.38
2018-03-24T00:20:58.191Z,2.38
2018-03-24T00:21:02.287Z,2.38
2018-03-24T00:21:06.394Z,2.38
2018-03-24T00:21:10.498Z,2.37
2018-03-24T00:21:14.490Z,2.37
2018-03-24T00:21:18.507Z,2.37
2018-03-24T00:21:22.604Z,2.37
2018-03-24T00:21:26.767Z,2.36
2018-03-24T00:21:30.983Z,2.35
2018-03-24T00:21:34.977Z,2.36
2018-03-24T00:21:39.076Z,2.36
2018-03-24T00:21:43.067Z,2.35
2018-03-24T00:21:47.172Z,2.34
2018-03-24T00:21:51.490Z,2.34
2018-03-24T00:21:55.808Z,2.34
2018-03-24T00:22:00.130Z,2.34
2018-03-24T00:22:04.121Z,2.33
2018-03-24T00:22:08.332Z,2.33
2018-03-24T00:22:12.653Z,2.33
2018-03-24T00:22:16.755Z,2.32
2018-03-24T00:22:20.867Z,2.32
2018-03-24T00:22:25.080Z,2.32
2018-03-24T00:22:29.178Z,2.31
2018-03-24T00:22:33.275Z,2.3
2018-03-24T00:22:37.589Z,2.31
2018-03-24T00:22:41.695Z,2.3
2018-03-24T00:22:45.915Z,2.3
2018-03-24T00:22:50.243Z,2.3
2018-03-24T00:22:54.559Z,2.29
2018-03-24T00:22:58.552Z,2.28
2018-03-24T00:23:02.498Z,2.29
2018-03-24T00:23:06.384Z,2.28
2018-03-24T00:23:10.595Z,2.28
2018-03-24T00:23:14.697Z,2.28
2018-03-24T00:23:19.069Z,2.28
2018-03-24T00:23:23.172Z,2.28
2018-03-24T00:23:27.279Z,2.27
2018-03-24T00:23:31.439Z,2.26
2018-03-24T00:23:35.539Z,2.25
2018-03-24T00:23:39.641Z,2.26
2018-03-24T00:23:43.956Z,2.25
2018-03-24T00:23:48.054Z,2.25
2018-03-24T00:23:52.157Z,2.24
2018-03-24T00:23:56.485Z,2.25
2018-03-24T00:24:00.586Z,2.24
2018-03-24T00:24:04.695Z,2.24
2018-03-24T00:24:08.687Z,2.23
2018-03-24T00:24:12.908Z,2.24
2018-03-24T00:24:17.231Z,2.23
2018-03-24T00:24:21.006Z,2.23
2018-03-24T00:24:25.109Z,2.23
2018-03-24T00:24:29.107Z,2.21
2018-03-24T00:24:33.206Z,2.22
2018-03-24T00:24:37.412Z,2.22
2018-03-24T00:24:41.724Z,2.21
2018-03-24T00:24:45.826Z,2.21
2018-03-24T00:24:50.042Z,2.21
2018-03-24T00:24:54.368Z,2.2
2018-03-24T00:24:58.474Z,2.2
2018-03-24T00:25:02.574Z,2.19
2018-03-24T00:25:06.782Z,2.2
2018-03-24T00:25:10.992Z,2.2
2018-03-24T00:25:15.124Z,2.19
2018-03-24T00:25:19.225Z,2.19
2018-03-24T00:25:23.320Z,2.18
2018-03-24T00:25:27.430Z,2.18
2018-03-24T00:25:31.417Z,2.17
2018-03-24T00:25:35.411Z,2.17
2018-03-24T00:25:39.509Z,2.17
2018-03-24T00:25:43.607Z,2.17
2018-03-24T00:25:47.921Z,2.15
2018-03-24T00:25:51.923Z,2.15
2018-03-24T00:25:55.914Z,2.15
2018-03-24T00:26:00.021Z,2.15
2018-03-24T00:26:04.234Z,2.15
2018-03-24T00:26:08.557Z,2.14
2018-03-24T00:26:12.716Z,2.14
2018-03-24T00:26:17.036Z,2.14
2018-03-24T00:26:21.244Z,2.13
2018-03-24T00:26:25.242Z,2.13
2018-03-24T00:26:29.232Z,2.12
2018-03-24T00:26:33.333Z,2.12
2018-03-24T00:26:37.539Z,2.12
2018-03-24T00:26:41.529Z,2.11
2018-03-24T00:26:45.738Z,2.11
2018-03-24T00:26:50.064Z,2.11
2018-03-24T00:26:54.163Z,2.1
2018-03-24T00:26:58.496Z,2.09
2018-03-24T00:27:03.066Z,2.1
2018-03-24T00:27:07.283Z,2.09
2018-03-24T00:27:11.614Z,2.09
2018-03-24T00:27:15.851Z,2.09
2018-03-24T00:27:19.956Z,2.08
2018-03-24T00:27:24.056Z,2.07
2018-03-24T00:27:28.385Z,2.07
2018-03-24T00:27:32.597Z,2.07
2018-03-24T00:27:36.481Z,2.06
2018-03-24T00:27:40.698Z,2.06
2018-03-24T00:27:44.799Z,2.05
2018-03-24T00:27:49.005Z,2.05
2018-03-24T00:27:53.320Z,2.05
2018-03-24T00:27:57.422Z,2.05
2018-03-24T00:28:01.433Z,2.04
2018-03-24T00:28:05.542Z,2.05
2018-03-24T00:28:09.428Z,2.04
2018-03-24T00:28:13.640Z,2.04
2018-03-24T00:28:17.740Z,2.04
2018-03-24T00:28:21.622Z,2.03
2018-03-24T00:28:25.832Z,2.03
2018-03-24T00:28:29.936Z,2.02
2018-03-24T00:28:34.150Z,2.01
2018-03-24T00:28:38.141Z,2.01
2018-03-24T00:28:42.140Z,2.02
2018-03-24T00:28:46.239Z,2.01
2018-03-24T00:28:50.345Z,2.01
2018-03-24T00:28:54.549Z,2
2018-03-24T00:28:58.656Z,2
2018-03-24T00:29:02.851Z,2
2018-03-24T00:29:06.951Z,1.99
2018-03-24T00:29:11.157Z,1.98
2018-03-24T00:29:15.379Z,1.99
2018-03-24T00:29:19.480Z,1.99
2018-03-24T00:29:23.708Z,1.98
2018-03-24T00:29:27.710Z,1.97
2018-03-24T00:29:31.592Z,1.96
2018-03-24T00:29:35.918Z,1.97
2018-03-24T00:29:40.020Z,1.96
2018-03-24T00:29:44.328Z,1.96
2018-03-24T00:29:48.540Z,1.96
2018-03-24T00:29:52.537Z,1.96
2018-03-24T00:29:56.649Z,1.96
2018-03-24T00:30:00.650Z,1.96
2018-03-24T00:30:04.764Z,1.95
2018-03-24T00:30:08.654Z,1.95
2018-03-24T00:30:12.870Z,1.95
2018-03-24T00:30:17.190Z,1.94
2018-03-24T00:30:21.288Z,1.93
2018-03-24T00:30:25.507Z,1.94
2018-03-24T00:30:29.503Z,1.94
2018-03-24T00:30:33.740Z,1.94
2018-03-24T00:30:37.855Z,1.93
2018-03-24T00:30:41.845Z,1.92
2018-03-24T00:30:45.956Z,1.92
2018-03-24T00:30:50.058Z,1.92
2018-03-24T00:30:54.075Z,1.92
2018-03-24T00:30:58.395Z,1.92
2018-03-24T00:31:02.656Z,1.91
2018-03-24T00:31:06.824Z,1.9
2018-03-24T00:31:10.825Z,1.9
2018-03-24T00:31:15.036Z,1.9
2018-03-24T00:31:19.133Z,1.89
2018-03-24T00:31:23.453Z,1.89
2018-03-24T00:31:27.768Z,1.89
2018-03-24T00:31:31.662Z,1.88
2018-03-24T00:31:35.764Z,1.88
2018-03-24T00:31:39.871Z,1.88
2018-03-24T00:31:44.097Z,1.88
2018-03-24T00:31:48.094Z,1.88
2018-03-24T00:31:52.202Z,1.88
2018-03-24T00:31:56.411Z,1.88
2018-03-24T00:32:00.625Z,1.88
2018-03-24T00:32:04.512Z,1.86
2018-03-24T00:32:08.719Z,1.87
2018-03-24T00:32:12.935Z,1.86
2018-03-24T00:32:17.154Z,1.86
2018-03-24T00:32:21.368Z,1.85
2018-03-24T00:32:25.574Z,1.85
2018-03-24T00:32:29.459Z,1.85
2018-03-24T00:32:33.719Z,1.84
2018-03-24T00:32:37.821Z,1.85
2018-03-24T00:32:42.028Z,1.84
2018-03-24T00:32:46.135Z,1.84
2018-03-24T00:32:50.354Z,1.84
2018-03-24T00:32:54.712Z,1.84
2018-03-24T00:32:58.726Z,1.82
2018-03-24T00:33:02.833Z,1.83
2018-03-24T00:33:07.049Z,1.83
2018-03-24T00:33:11.145Z,1.82
2018-03-24T00:33:15.247Z,1.82
2018-03-24T00:33:19.454Z,1.82
2018-03-24T00:33:23.556Z,1.81
2018-03-24T00:33:27.762Z,1.82
2018-03-24T00:33:31.978Z,1.82
2018-03-24T00:33:36.292Z,1.81
2018-03-24T00:33:40.406Z,1.8
2018-03-24T00:33:44.405Z,1.81
2018-03-24T00:33:48.509Z,1.79
2018-03-24T00:33:52.507Z,1.8
2018-03-24T00:33:56.502Z,1.79
2018-03-24T00:34:00.714Z,1.8
2018-03-24T00:34:04.640Z,1.79
2018-03-24T00:34:08.955Z,1.77
2018-03-24T00:34:13.281Z,1.77
2018-03-24T00:34:17.390Z,1.77
2018-03-24T00:34:21.607Z,1.77
2018-03-24T00:34:25.815Z,1.77
2018-03-24T00:34:29.807Z,1.76
2018-03-24T00:34:33.695Z,1.76
2018-03-24T00:34:38.116Z,1.76
2018-03-24T00:34:42.210Z,1.76
2018-03-24T00:34:46.427Z,1.76
2018-03-24T00:34:50.532Z,1.75
2018-03-24T00:34:54.635Z,1.75
2018-03-24T00:34:58.737Z,1.75
2018-03-24T00:35:03.083Z,1.75
2018-03-24T00:35:07.071Z,1.75
2018-03-24T00:35:10.845Z,1.74
2018-03-24T00:35:14.943Z,1.74
2018-03-24T00:35:19.151Z,1.74
2018-03-24T00:35:23.037Z,1.73
2018-03-24T00:35:27.141Z,1.72
2018-03-24T00:35:31.477Z,1.71
2018-03-24T00:35:35.586Z,1.72
2018-03-24T00:35:39.468Z,1.73
2018-03-24T00:35:43.627Z,1.72
2018-03-24T00:35:47.840Z,1.72
2018-03-24T00:35:52.055Z,1.72
2018-03-24T00:35:56.157Z,1.71
2018-03-24T00:36:00.261Z,1.7
2018-03-24T00:36:04.188Z,1.7
2018-03-24T00:36:08.177Z,1.71
2018-03-24T00:36:12.279Z,1.71
2018-03-24T00:36:16.483Z,1.69
2018-03-24T00:36:20.695Z,1.7
2018-03-24T00:36:24.913Z,1.7
2018-03-24T00:36:29.123Z,1.69
2018-03-24T00:36:33.129Z,1.69
2018-03-24T00:36:37.228Z,1.68
2018-03-24T00:36:41.216Z,1.68
2018-03-24T00:36:45.210Z,1.68
2018-03-24T00:36:49.414Z,1.67
2018-03-24T00:36:53.771Z,1.68
2018-03-24T00:36:57.977Z,1.68
2018-03-24T00:37:02.488Z,1.67
2018-03-24T00:37:06.708Z,1.66
2018-03-24T00:37:10.922Z,1.66
2018-03-24T00:37:15.131Z,1.66
2018-03-24T00:37:19.011Z,1.65
2018-03-24T00:37:23.226Z,1.65
2018-03-24T00:37:27.336Z,1.65
2018-03-24T00:37:31.325Z,1.64
2018-03-24T00:37:35.321Z,1.65
2018-03-24T00:37:39.540Z,1.65
2018-03-24T00:37:43.747Z,1.64
2018-03-24T00:37:47.846Z,1.64
2018-03-24T00:37:52.055Z,1.64
2018-03-24T00:37:56.268Z,1.64
2018-03-24T00:38:00.589Z,1.63
2018-03-24T00:38:05.093Z,1.63
2018-03-24T00:38:09.308Z,1.62
2018-03-24T00:38:13.484Z,1.63
2018-03-24T00:38:17.475Z,1.63
2018-03-24T00:38:21.680Z,1.63
2018-03-24T00:38:25.688Z,1.62
2018-03-24T00:38:29.787Z,1.62
2018-03-24T00:38:33.781Z,1.62
2018-03-24T00:38:37.666Z,1.62
2018-03-24T00:38:41.876Z,1.61
2018-03-24T00:38:46.083Z,1.62
2018-03-24T00:38:50.189Z,1.61
2018-03-24T00:38:54.400Z,1.61
2018-03-24T00:38:58.396Z,1.61
2018-03-24T00:39:02.635Z,1.61
2018-03-24T00:39:06.737Z,1.6
2018-03-24T00:39:10.840Z,1.6
2018-03-24T00:39:15.058Z,1.6
2018-03-24T00:39:19.378Z,1.59
2018-03-24T00:39:23.477Z,1.59
2018-03-24T00:39:27.440Z,1.59
2018-03-24T00:39:31.656Z,1.59
2018-03-24T00:39:35.878Z,1.58
2018-03-24T00:39:39.975Z,1.58
2018-03-24T00:39:44.071Z,1.59
2018-03-24T00:39:48.171Z,1.58
2018-03-24T00:39:52.385Z,1.58
2018-03-24T00:39:56.495Z,1.58
2018-03-24T00:40:00.602Z,1.58
2018-03-24T00:40:04.936Z,1.58
2018-03-24T00:40:09.154Z,1.56
2018-03-24T00:40:13.254Z,1.57
2018-03-24T00:40:17.478Z,1.57
2018-03-24T00:40:21.581Z,1.57
2018-03-24T00:40:25.891Z,1.57
2018-03-24T00:40:29.993Z,1.56
2018-03-24T00:40:33.982Z,1.56
2018-03-24T00:40:38.188Z,1.57
2018-03-24T00:40:42.405Z,1.56
2018-03-24T00:40:46.287Z,1.57
2018-03-24T00:40:50.186Z,1.56
2018-03-24T00:40:54.344Z,1.56
2018-03-24T00:40:58.551Z,1.56
2018-03-24T00:41:02.552Z,1.55
2018-03-24T00:41:06.544Z,1.56
2018-03-24T00:41:10.427Z,1.55
2018-03-24T00:41:14.533Z,1.55
2018-03-24T00:41:18.538Z,1.55
2018-03-24T00:41:22.531Z,1.55
2018-03-24T00:41:26.629Z,1.55
2018-03-24T00:41:30.845Z,1.55
2018-03-24T00:41:35.067Z,1.54
2018-03-24T00:41:39.062Z,1.54
2018-03-24T00:41:43.167Z,1.54
2018-03-24T00:41:47.272Z,1.54
2018-03-24T00:41:51.372Z,1.53
2018-03-24T00:41:55.475Z,1.54
2018-03-24T00:41:59.685Z,1.54
2018-03-24T00:42:03.888Z,1.53
2018-03-24T00:42:08.101Z,1.53
2018-03-24T00:42:12.380Z,1.53
2018-03-24T00:42:16.733Z,1.53
2018-03-24T00:42:20.834Z,1.53
2018-03-24T00:42:25.150Z,1.53
2018-03-24T00:42:29.497Z,1.53
2018-03-24T00:42:33.276Z,1.53
2018-03-24T00:42:37.267Z,1.53
2018-03-24T00:42:41.475Z,1.52
2018-03-24T00:42:45.685Z,1.52
2018-03-24T00:42:49.807Z,1.53
2018-03-24T00:42:53.908Z,1.52
2018-03-24T00:42:58.123Z,1.52
2018-03-24T00:43:02.531Z,1.52
2018-03-24T00:43:06.739Z,1.52
2018-03-24T00:43:10.944Z,1.52
2018-03-24T00:43:15.279Z,1.52
2018-03-24T00:43:19.605Z,1.51
2018-03-24T00:43:23.817Z,1.52
2018-03-24T00:43:27.808Z,1.52
2018-03-24T00:43:31.907Z,1.51
2018-03-24T00:43:36.112Z,1.51
2018-03-24T00:43:40.109Z,1.51
2018-03-24T00:43:44.424Z,1.51
2018-03-24T00:43:48.636Z,1.5
2018-03-24T00:43:52.745Z,1.51
2018-03-24T00:43:57.058Z,1.51
2018-03-24T00:44:01.264Z,1.5
2018-03-24T00:44:05.456Z,1.5
2018-03-24T00:44:09.561Z,1.5
2018-03-24T00:44:13.771Z,1.49
2018-03-24T00:44:17.991Z,1.5
2018-03-24T00:44:22.092Z,1.5
2018-03-24T00:44:26.093Z,1.5
2018-03-24T00:44:30.421Z,1.5
2018-03-24T00:44:34.305Z,1.51
2018-03-24T00:44:38.405Z,1.5
2018-03-24T00:44:42.515Z,1.5
2018-03-24T00:44:46.609Z,1.5
2018-03-24T00:44:50.838Z,1.5
2018-03-24T00:44:55.038Z,1.5
2018-03-24T00:44:59.032Z,1.5
2018-03-24T00:45:03.238Z,1.5
2018-03-24T00:45:07.230Z,1.51
2018-03-24T00:45:11.698Z,1.49
2018-03-24T00:45:15.909Z,1.5
2018-03-24T00:45:20.127Z,1.5
2018-03-24T00:45:24.013Z,1.49
2018-03-24T00:45:28.293Z,1.5
2018-03-24T00:45:32.401Z,1.49
2018-03-24T00:45:36.451Z,1.49
2018-03-24T00:45:40.492Z,1.49
2018-03-24T00:45:44.377Z,1.49
2018-03-24T00:45:48.588Z,1.49
2018-03-24T00:45:52.818Z,1.48
2018-03-24T00:45:57.027Z,1.49
2018-03-24T00:46:01.131Z,1.49
2018-03-24T00:46:05.130Z,1.48
2018-03-24T00:46:09.233Z,1.49
2018-03-24T00:46:13.449Z,1.49
2018-03-24T00:46:17.657Z,1.48
2018-03-24T00:46:21.974Z,1.49
2018-03-24T00:46:26.185Z,1.48
2018-03-24T00:46:30.289Z,1.49
2018-03-24T00:46:34.404Z,1.47
2018-03-24T00:46:38.398Z,1.49
2018-03-24T00:46:42.497Z,1.48
2018-03-24T00:46:46.594Z,1.48
2018-03-24T00:46:50.760Z,1.5
2018-03-24T00:46:54.640Z,1.48
2018-03-24T00:46:58.525Z,1.48
2018-03-24T00:47:02.640Z,1.48
2018-03-24T00:47:06.750Z,1.49
2018-03-24T00:47:10.963Z,1.48
2018-03-24T00:47:15.167Z,1.48
2018-03-24T00:47:19.272Z,1.47
2018-03-24T00:47:23.490Z,1.49
2018-03-24T00:47:27.700Z,1.48
2018-03-24T00:47:31.749Z,1.48
2018-03-24T00:47:35.849Z,1.48
2018-03-24T00:47:40.172Z,1.48
2018-03-24T00:47:44.494Z,1.48
2018-03-24T00:47:48.487Z,1.49
2018-03-24T00:47:52.598Z,1.48
2018-03-24T00:47:56.592Z,1.49
2018-03-24T00:48:00.913Z,1.48
2018-03-24T00:48:05.473Z,1.49
2018-03-24T00:48:09.684Z,1.48
2018-03-24T00:48:13.900Z,1.49
2018-03-24T00:48:17.895Z,1.49
2018-03-24T00:48:22.003Z,1.48
2018-03-24T00:48:26.003Z,1.49
2018-03-24T00:48:29.886Z,1.49
2018-03-24T00:48:34.100Z,1.5
2018-03-24T00:48:38.212Z,1.48
2018-03-24T00:48:42.371Z,1.49
2018-03-24T00:48:46.366Z,1.48
2018-03-24T00:48:50.684Z,1.49
2018-03-24T00:48:55.006Z,1.48
2018-03-24T00:48:59.106Z,1.48
2018-03-24T00:49:03.207Z,1.49
2018-03-24T00:49:07.530Z,1.48
2018-03-24T00:49:11.524Z,1.47
2018-03-24T00:49:15.735Z,1.48
2018-03-24T00:49:20.049Z,1.48
2018-03-24T00:49:24.144Z,1.48
2018-03-24T00:49:28.465Z,1.48
2018-03-24T00:49:32.348Z,1.48
2018-03-24T00:49:36.340Z,1.49
2018-03-24T00:49:40.690Z,1.48
2018-03-24T00:49:44.677Z,1.47
2018-03-24T00:49:48.564Z,1.48
2018-03-24T00:49:52.769Z,1.48
2018-03-24T00:49:57.092Z,1.46
2018-03-24T00:50:01.083Z,1.48
2018-03-24T00:50:05.346Z,1.47
2018-03-24T00:50:09.444Z,1.48
2018-03-24T00:50:13.549Z,1.49
2018-03-24T00:50:17.864Z,1.48
2018-03-24T00:50:22.078Z,1.47
2018-03-24T00:50:26.178Z,1.47
2018-03-24T00:50:30.181Z,1.48
2018-03-24T00:50:34.499Z,1.48
2018-03-24T00:50:38.597Z,1.47
2018-03-24T00:50:42.693Z,1.47
2018-03-24T00:50:46.906Z,1.48
2018-03-24T00:50:51.012Z,1.46
2018-03-24T00:50:54.786Z,1.46
2018-03-24T00:50:58.776Z,1.46
2018-03-24T00:51:02.659Z,1.46
2018-03-24T00:51:06.660Z,1.46
2018-03-24T00:51:10.758Z,1.46
2018-03-24T00:51:14.878Z,1.46
2018-03-24T00:51:18.864Z,1.46
2018-03-24T00:51:22.960Z,1.46
2018-03-24T00:51:27.169Z,1.46
2018-03-24T00:51:31.385Z,1.46
2018-03-24T00:51:35.490Z,1.45
2018-03-24T00:51:39.591Z,1.44
2018-03-24T00:51:43.800Z,1.44
2018-03-24T00:51:47.792Z,1.45
2018-03-24T00:51:51.679Z,1.45
2018-03-24T00:51:56.003Z,1.45
2018-03-24T00:51:59.995Z,1.44
2018-03-24T00:52:04.568Z,1.45
2018-03-24T00:52:08.899Z,1.45
2018-03-24T00:52:12.894Z,1.44
2018-03-24T00:52:17.143Z,1.44
2018-03-24T00:52:21.476Z,1.44
2018-03-24T00:52:25.523Z,1.43
2018-03-24T00:52:30.056Z,1.43
2018-03-24T00:52:34.552Z,1.43
2018-03-24T00:52:38.771Z,1.43
2018-03-24T00:52:42.663Z,1.43
2018-03-24T00:52:46.546Z,1.42
2018-03-24T00:52:50.865Z,1.43
2018-03-24T00:52:55.072Z,1.42
2018-03-24T00:52:59.164Z,1.41
2018-03-24T00:53:03.263Z,1.4
2018-03-24T00:53:07.471Z,1.42
2018-03-24T00:53:11.572Z,1.41
2018-03-24T00:53:15.572Z,1.4
2018-03-24T00:53:19.561Z,1.4
2018-03-24T00:53:23.801Z,1.4
2018-03-24T00:53:27.796Z,1.4
2018-03-24T00:53:32.116Z,1.39
2018-03-24T00:53:36.119Z,1.39
2018-03-24T00:53:40.002Z,1.39
2018-03-24T00:53:43.991Z,1.39
2018-03-24T00:53:47.995Z,1.39
2018-03-24T00:53:52.104Z,1.38
2018-03-24T00:53:56.212Z,1.38
2018-03-24T00:54:00.306Z,1.38
2018-03-24T00:54:04.767Z,1.38
2018-03-24T00:54:08.869Z,1.37
2018-03-24T00:54:13.091Z,1.37
2018-03-24T00:54:17.315Z,1.37
2018-03-24T00:54:21.526Z,1.37
2018-03-24T00:54:25.563Z,1.37
2018-03-24T00:54:29.552Z,1.36
2018-03-24T00:54:33.646Z,1.36
2018-03-24T00:54:37.873Z,1.37
2018-03-24T00:54:41.968Z,1.36
2018-03-24T00:54:46.075Z,1.36
2018-03-24T00:54:50.289Z,1.35
2018-03-24T00:54:54.280Z,1.35
2018-03-24T00:54:58.397Z,1.36
2018-03-24T00:55:02.612Z,1.35
2018-03-24T00:55:06.606Z,1.35
2018-03-24T00:55:10.706Z,1.34